sensor_id;sensor_type;location;lat;lon;timestamp;P1;durP1;ratioP1;P2;durP2;ratioP2
75272;SDS011;63869;52.344;16.928;2024-02-14T11:47:44;12.57;;;6.85;;
75272;SDS011;63869;52.344;16.928;2024-02-14T11:50:17;12.82;;;6.22;;
75272;SDS011;63869;52.344;16.928;2024-02-14T11:52:43;12.80;;;7.45;;
75272;SDS011;63869;52.344;16.928;2024-02-14T11:55:09;10.82;;;6.15;;
75272;SDS011;63869;52.344;16.928;2024-02-14T11:57:35;11.32;;;6.15;;
75272;SDS011;63869;52.344;16.928;2024-02-14T12:00:01;11.90;;;7.40;;
75272;SDS011;63869;52.344;16.928;2024-02-14T12:02:27;13.85;;;6.78;;
75272;SDS011;63869;52.344;16.928;2024-02-14T12:04:53;16.20;;;7.93;;
75272;SDS011;63869;52.344;16.928;2024-02-14T12:07:20;14.93;;;7.68;;
75272;SDS011;63869;52.344;16.928;2024-02-14T12:09:47;21.65;;;10.88;;
75272;SDS011;63869;52.344;16.928;2024-02-14T12:12:13;14.82;;;8.88;;
75272;SDS011;63869;52.344;16.928;2024-02-14T12:14:40;21.73;;;8.98;;
75272;SDS011;63869;52.344;16.928;2024-02-14T12:17:08;17.27;;;8.40;;
75272;SDS011;63869;52.344;16.928;2024-02-14T12:19:34;12.00;;;6.72;;
75272;SDS011;63869;52.344;16.928;2024-02-14T12:22:02;11.95;;;6.80;;
75272;SDS011;63869;52.344;16.928;2024-02-14T12:24:36;17.05;;;7.53;;
75272;SDS011;63869;52.344;16.928;2024-02-14T12:27:04;13.43;;;7.03;;
75272;SDS011;63869;52.344;16.928;2024-02-14T12:29:29;13.50;;;7.40;;
75272;SDS011;63869;52.344;16.928;2024-02-14T12:32:07;13.13;;;7.03;;
75272;SDS011;63869;52.344;16.928;2024-02-14T12:34:33;14.00;;;7.60;;
75272;SDS011;63869;52.344;16.928;2024-02-14T12:36:58;14.57;;;7.63;;
75272;SDS011;63869;52.344;16.928;2024-02-14T12:39:24;14.45;;;7.72;;
75272;SDS011;63869;52.344;16.928;2024-02-14T12:41:51;16.08;;;7.18;;
75272;SDS011;63869;52.344;16.928;2024-02-14T12:44:17;15.02;;;7.55;;
75272;SDS011;63869;52.344;16.928;2024-02-14T12:46:43;13.15;;;7.15;;
75272;SDS011;63869;52.344;16.928;2024-02-14T12:49:08;13.60;;;7.40;;
75272;SDS011;63869;52.344;16.928;2024-02-14T12:51:34;12.43;;;7.15;;
75272;SDS011;63869;52.344;16.928;2024-02-14T12:54:01;17.80;;;7.05;;
75272;SDS011;63869;52.344;16.928;2024-02-14T12:56:26;11.80;;;6.93;;
75272;SDS011;63869;52.344;16.928;2024-02-14T12:58:52;12.85;;;6.70;;
75272;SDS011;63869;52.344;16.928;2024-02-14T13:01:17;12.23;;;6.35;;
75272;SDS011;63869;52.344;16.928;2024-02-14T13:03:43;11.48;;;6.45;;
75272;SDS011;63869;52.344;16.928;2024-02-14T13:06:09;11.75;;;6.43;;
75272;SDS011;63869;52.344;16.928;2024-02-14T13:08:35;13.20;;;6.15;;
75272;SDS011;63869;52.344;16.928;2024-02-14T13:11:03;12.30;;;6.15;;
75272;SDS011;63869;52.344;16.928;2024-02-14T13:13:29;11.15;;;5.93;;
75272;SDS011;63869;52.344;16.928;2024-02-14T13:15:54;11.63;;;6.22;;
75272;SDS011;63869;52.344;16.928;2024-02-14T13:18:20;10.48;;;5.75;;
75272;SDS011;63869;52.344;16.928;2024-02-14T13:20:45;24.35;;;9.23;;
75272;SDS011;63869;52.344;16.928;2024-02-14T13:23:11;18.02;;;6.70;;
75272;SDS011;63869;52.344;16.928;2024-02-14T13:25:36;13.82;;;6.53;;
75272;SDS011;63869;52.344;16.928;2024-02-14T13:28:02;16.10;;;7.93;;
75272;SDS011;63869;52.344;16.928;2024-02-14T13:30:29;15.40;;;6.78;;
75272;SDS011;63869;52.344;16.928;2024-02-14T13:32:55;13.73;;;7.25;;
75272;SDS011;63869;52.344;16.928;2024-02-14T13:35:20;16.05;;;7.70;;
75272;SDS011;63869;52.344;16.928;2024-02-14T13:37:46;13.95;;;7.10;;
75272;SDS011;63869;52.344;16.928;2024-02-14T13:40:12;15.27;;;7.50;;
75272;SDS011;63869;52.344;16.928;2024-02-14T13:42:40;15.38;;;8.00;;
75272;SDS011;63869;52.344;16.928;2024-02-14T13:45:06;14.98;;;7.47;;
75272;SDS011;63869;52.344;16.928;2024-02-14T13:47:38;15.07;;;7.85;;
75272;SDS011;63869;52.344;16.928;2024-02-14T13:50:05;14.98;;;8.00;;
75272;SDS011;63869;52.344;16.928;2024-02-14T13:52:32;15.10;;;7.70;;
75272;SDS011;63869;52.344;16.928;2024-02-14T13:54:58;16.27;;;7.95;;
75272;SDS011;63869;52.344;16.928;2024-02-14T13:57:23;13.88;;;7.85;;
75272;SDS011;63869;52.344;16.928;2024-02-14T13:59:48;15.40;;;8.25;;
75272;SDS011;63869;52.344;16.928;2024-02-14T14:02:17;17.95;;;8.65;;
75272;SDS011;63869;52.344;16.928;2024-02-14T14:04:42;13.88;;;7.38;;
75272;SDS011;63869;52.344;16.928;2024-02-14T14:07:08;18.73;;;10.85;;
75272;SDS011;63869;52.344;16.928;2024-02-14T14:09:33;17.85;;;8.82;;
75272;SDS011;63869;52.344;16.928;2024-02-14T14:12:00;23.13;;;13.00;;
75272;SDS011;63869;52.344;16.928;2024-02-14T14:14:25;21.13;;;9.80;;
75272;SDS011;63869;52.344;16.928;2024-02-14T14:16:52;15.55;;;8.07;;
75272;SDS011;63869;52.344;16.928;2024-02-14T14:19:18;16.42;;;7.88;;
75272;SDS011;63869;52.344;16.928;2024-02-14T14:21:43;15.05;;;7.68;;
75272;SDS011;63869;52.344;16.928;2024-02-14T14:24:09;15.60;;;8.25;;
75272;SDS011;63869;52.344;16.928;2024-02-14T14:26:34;18.58;;;8.57;;
75272;SDS011;63869;52.344;16.928;2024-02-14T14:29:00;20.63;;;9.85;;
75272;SDS011;63869;52.344;16.928;2024-02-14T14:31:26;19.98;;;9.52;;
75272;SDS011;63869;52.344;16.928;2024-02-14T14:33:51;17.60;;;9.00;;
75272;SDS011;63869;52.344;16.928;2024-02-14T14:36:18;20.00;;;9.50;;
75272;SDS011;63869;52.344;16.928;2024-02-14T14:38:44;18.23;;;8.65;;
75272;SDS011;63869;52.344;16.928;2024-02-14T14:41:10;24.50;;;11.65;;
75272;SDS011;63869;52.344;16.928;2024-02-14T14:43:35;35.42;;;16.00;;
75272;SDS011;63869;52.344;16.928;2024-02-14T14:46:01;26.77;;;12.27;;
75272;SDS011;63869;52.344;16.928;2024-02-14T14:48:26;19.08;;;10.02;;
75272;SDS011;63869;52.344;16.928;2024-02-14T14:50:52;17.45;;;7.63;;
75272;SDS011;63869;52.344;16.928;2024-02-14T14:53:18;18.65;;;9.23;;
75272;SDS011;63869;52.344;16.928;2024-02-14T14:58:16;22.27;;;11.15;;
75272;SDS011;63869;52.344;16.928;2024-02-14T15:00:42;19.98;;;9.43;;
75272;SDS011;63869;52.344;16.928;2024-02-14T15:03:09;17.13;;;9.05;;
75272;SDS011;63869;52.344;16.928;2024-02-14T15:05:37;15.75;;;8.98;;
75272;SDS011;63869;52.344;16.928;2024-02-14T15:08:04;23.35;;;11.05;;
75272;SDS011;63869;52.344;16.928;2024-02-14T15:10:31;17.85;;;8.95;;
75272;SDS011;63869;52.344;16.928;2024-02-14T15:12:57;22.58;;;10.43;;
75272;SDS011;63869;52.344;16.928;2024-02-14T15:15:22;16.70;;;9.05;;
75272;SDS011;63869;52.344;16.928;2024-02-14T15:17:49;12.10;;;7.63;;
75272;SDS011;63869;52.344;16.928;2024-02-14T15:20:15;16.85;;;8.25;;
75272;SDS011;63869;52.344;16.928;2024-02-14T15:22:43;13.68;;;7.60;;
75272;SDS011;63869;52.344;16.928;2024-02-14T15:25:08;16.98;;;8.65;;
75272;SDS011;63869;52.344;16.928;2024-02-14T15:27:34;15.27;;;7.85;;
75272;SDS011;63869;52.344;16.928;2024-02-14T15:30:05;17.20;;;9.32;;
75272;SDS011;63869;52.344;16.928;2024-02-14T15:32:50;16.42;;;8.07;;
75272;SDS011;63869;52.344;16.928;2024-02-14T15:35:34;15.80;;;8.65;;
75272;SDS011;63869;52.344;16.928;2024-02-14T15:37:59;20.10;;;10.75;;
75272;SDS011;63869;52.344;16.928;2024-02-14T15:40:25;25.05;;;11.43;;
75272;SDS011;63869;52.344;16.928;2024-02-14T15:42:52;39.72;;;19.67;;
75272;SDS011;63869;52.344;16.928;2024-02-14T15:45:17;29.92;;;15.10;;
75272;SDS011;63869;52.344;16.928;2024-02-14T15:47:43;22.63;;;11.75;;
75272;SDS011;63869;52.344;16.928;2024-02-14T15:50:09;20.58;;;11.68;;
75272;SDS011;63869;52.344;16.928;2024-02-14T15:52:35;43.92;;;19.83;;
75272;SDS011;63869;52.344;16.928;2024-02-14T15:55:00;26.13;;;13.35;;
75272;SDS011;63869;52.344;16.928;2024-02-14T15:57:25;20.85;;;10.38;;
75272;SDS011;63869;52.344;16.928;2024-02-14T15:59:51;20.83;;;10.00;;
75272;SDS011;63869;52.344;16.928;2024-02-14T16:02:16;21.63;;;10.02;;
75272;SDS011;63869;52.344;16.928;2024-02-14T16:04:42;19.58;;;9.75;;
75272;SDS011;63869;52.344;16.928;2024-02-14T16:07:07;19.80;;;10.00;;
75272;SDS011;63869;52.344;16.928;2024-02-14T16:09:32;16.27;;;9.70;;
75272;SDS011;63869;52.344;16.928;2024-02-14T16:11:58;19.40;;;9.98;;
75272;SDS011;63869;52.344;16.928;2024-02-14T16:14:23;30.48;;;13.60;;
75272;SDS011;63869;52.344;16.928;2024-02-14T16:16:49;49.60;;;17.67;;
75272;SDS011;63869;52.344;16.928;2024-02-14T16:19:14;167.70;;;48.15;;
75272;SDS011;63869;52.344;16.928;2024-02-14T16:21:40;69.03;;;24.85;;
75272;SDS011;63869;52.344;16.928;2024-02-14T16:24:07;33.15;;;14.75;;
75272;SDS011;63869;52.344;16.928;2024-02-14T16:26:32;38.38;;;16.58;;
75272;SDS011;63869;52.344;16.928;2024-02-14T16:28:57;104.85;;;35.20;;
75272;SDS011;63869;52.344;16.928;2024-02-14T16:31:23;73.80;;;27.30;;
75272;SDS011;63869;52.344;16.928;2024-02-14T16:33:48;52.42;;;23.15;;
75272;SDS011;63869;52.344;16.928;2024-02-14T16:36:13;55.40;;;25.67;;
75272;SDS011;63869;52.344;16.928;2024-02-14T16:38:39;40.63;;;20.48;;
75272;SDS011;63869;52.344;16.928;2024-02-14T16:41:04;40.55;;;20.60;;
75272;SDS011;63869;52.344;16.928;2024-02-14T16:43:29;39.28;;;18.58;;
75272;SDS011;63869;52.344;16.928;2024-02-14T16:45:54;33.30;;;17.25;;
75272;SDS011;63869;52.344;16.928;2024-02-14T16:48:20;25.05;;;13.38;;
75272;SDS011;63869;52.344;16.928;2024-02-14T16:50:45;23.00;;;11.82;;
75272;SDS011;63869;52.344;16.928;2024-02-14T16:53:11;22.60;;;11.40;;
75272;SDS011;63869;52.344;16.928;2024-02-14T16:55:36;20.20;;;11.35;;
75272;SDS011;63869;52.344;16.928;2024-02-14T16:58:01;19.05;;;10.07;;
75272;SDS011;63869;52.344;16.928;2024-02-14T17:00:27;30.83;;;12.63;;
75272;SDS011;63869;52.344;16.928;2024-02-14T17:02:53;39.80;;;16.70;;
75272;SDS011;63869;52.344;16.928;2024-02-14T17:05:19;19.58;;;10.15;;
75272;SDS011;63869;52.344;16.928;2024-02-14T17:07:46;21.73;;;10.57;;
75272;SDS011;63869;52.344;16.928;2024-02-14T17:10:11;26.33;;;14.00;;
75272;SDS011;63869;52.344;16.928;2024-02-14T17:12:37;28.50;;;15.75;;
75272;SDS011;63869;52.344;16.928;2024-02-14T17:15:02;27.10;;;13.40;;
75272;SDS011;63869;52.344;16.928;2024-02-14T17:17:30;25.75;;;12.88;;
75272;SDS011;63869;52.344;16.928;2024-02-14T17:19:56;26.30;;;12.20;;
75272;SDS011;63869;52.344;16.928;2024-02-14T17:22:24;26.52;;;12.73;;
75272;SDS011;63869;52.344;16.928;2024-02-14T17:24:49;23.45;;;12.05;;
75272;SDS011;63869;52.344;16.928;2024-02-14T17:27:22;22.70;;;11.47;;
75272;SDS011;63869;52.344;16.928;2024-02-14T17:29:47;27.58;;;12.82;;
75272;SDS011;63869;52.344;16.928;2024-02-14T17:32:13;30.55;;;12.70;;
75272;SDS011;63869;52.344;16.928;2024-02-14T17:34:38;26.52;;;12.10;;
75272;SDS011;63869;52.344;16.928;2024-02-14T17:37:05;27.75;;;13.32;;
75272;SDS011;63869;52.344;16.928;2024-02-14T17:39:30;25.83;;;11.43;;
75272;SDS011;63869;52.344;16.928;2024-02-14T17:41:59;30.60;;;12.48;;
75272;SDS011;63869;52.344;16.928;2024-02-14T17:44:29;26.83;;;11.35;;
75272;SDS011;63869;52.344;16.928;2024-02-14T17:46:54;27.52;;;12.60;;
75272;SDS011;63869;52.344;16.928;2024-02-14T17:49:19;28.00;;;13.32;;
75272;SDS011;63869;52.344;16.928;2024-02-14T17:51:45;28.30;;;12.45;;
75272;SDS011;63869;52.344;16.928;2024-02-14T17:54:13;29.02;;;12.95;;
75272;SDS011;63869;52.344;16.928;2024-02-14T17:56:52;26.23;;;12.40;;
75272;SDS011;63869;52.344;16.928;2024-02-14T17:59:20;32.28;;;13.07;;
75272;SDS011;63869;52.344;16.928;2024-02-14T18:01:46;29.98;;;13.32;;
75272;SDS011;63869;52.344;16.928;2024-02-14T18:04:11;34.97;;;14.63;;
75272;SDS011;63869;52.344;16.928;2024-02-14T18:06:36;32.83;;;13.43;;
75272;SDS011;63869;52.344;16.928;2024-02-14T18:09:02;35.35;;;15.40;;
75272;SDS011;63869;52.344;16.928;2024-02-14T18:11:27;31.75;;;13.73;;
75272;SDS011;63869;52.344;16.928;2024-02-14T18:13:53;30.83;;;14.23;;
75272;SDS011;63869;52.344;16.928;2024-02-14T18:16:18;27.42;;;13.95;;
75272;SDS011;63869;52.344;16.928;2024-02-14T18:18:45;33.20;;;14.52;;
75272;SDS011;63869;52.344;16.928;2024-02-14T18:21:11;32.80;;;14.55;;
75272;SDS011;63869;52.344;16.928;2024-02-14T18:23:37;27.70;;;13.32;;
75272;SDS011;63869;52.344;16.928;2024-02-14T18:26:03;29.15;;;14.70;;
75272;SDS011;63869;52.344;16.928;2024-02-14T18:28:29;29.85;;;14.35;;
75272;SDS011;63869;52.344;16.928;2024-02-14T18:30:56;27.85;;;15.30;;
75272;SDS011;63869;52.344;16.928;2024-02-14T18:33:21;31.40;;;14.05;;
75272;SDS011;63869;52.344;16.928;2024-02-14T18:35:47;28.70;;;13.43;;
75272;SDS011;63869;52.344;16.928;2024-02-14T18:38:12;30.90;;;14.85;;
75272;SDS011;63869;52.344;16.928;2024-02-14T18:40:38;29.95;;;16.15;;
75272;SDS011;63869;52.344;16.928;2024-02-14T18:43:07;32.58;;;14.30;;
75272;SDS011;63869;52.344;16.928;2024-02-14T18:48:11;46.53;;;20.95;;
75272;SDS011;63869;52.344;16.928;2024-02-14T18:50:40;47.38;;;20.08;;
75272;SDS011;63869;52.344;16.928;2024-02-14T18:53:06;40.97;;;18.55;;
75272;SDS011;63869;52.344;16.928;2024-02-14T18:55:32;34.40;;;17.48;;
75272;SDS011;63869;52.344;16.928;2024-02-14T18:57:57;65.80;;;27.13;;
75272;SDS011;63869;52.344;16.928;2024-02-14T19:00:23;43.33;;;20.92;;
75272;SDS011;63869;52.344;16.928;2024-02-14T19:02:50;34.03;;;16.38;;
75272;SDS011;63869;52.344;16.928;2024-02-14T19:05:15;41.03;;;17.45;;
75272;SDS011;63869;52.344;16.928;2024-02-14T19:07:41;32.03;;;14.80;;
75272;SDS011;63869;52.344;16.928;2024-02-14T19:10:06;29.65;;;14.48;;
75272;SDS011;63869;52.344;16.928;2024-02-14T19:12:32;42.80;;;17.58;;
75272;SDS011;63869;52.344;16.928;2024-02-14T19:14:58;28.55;;;15.25;;
75272;SDS011;63869;52.344;16.928;2024-02-14T19:17:28;28.75;;;15.00;;
75272;SDS011;63869;52.344;16.928;2024-02-14T19:20:01;31.10;;;16.20;;
75272;SDS011;63869;52.344;16.928;2024-02-14T19:22:34;26.88;;;15.70;;
75272;SDS011;63869;52.344;16.928;2024-02-14T19:25:05;34.10;;;16.90;;
75272;SDS011;63869;52.344;16.928;2024-02-14T19:27:31;38.97;;;18.83;;
75272;SDS011;63869;52.344;16.928;2024-02-14T19:29:58;41.70;;;19.42;;
75272;SDS011;63869;52.344;16.928;2024-02-14T19:32:24;35.05;;;18.85;;
75272;SDS011;63869;52.344;16.928;2024-02-14T19:34:49;53.97;;;24.55;;
75272;SDS011;63869;52.344;16.928;2024-02-14T19:37:16;48.35;;;21.98;;
75272;SDS011;63869;52.344;16.928;2024-02-14T19:39:42;46.10;;;23.48;;
75272;SDS011;63869;52.344;16.928;2024-02-14T19:42:08;52.95;;;24.88;;
75272;SDS011;63869;52.344;16.928;2024-02-14T19:44:34;40.97;;;21.15;;
75272;SDS011;63869;52.344;16.928;2024-02-14T19:46:59;34.95;;;18.98;;
75272;SDS011;63869;52.344;16.928;2024-02-14T19:49:24;30.40;;;15.98;;
75272;SDS011;63869;52.344;16.928;2024-02-14T19:51:51;41.55;;;19.88;;
75272;SDS011;63869;52.344;16.928;2024-02-14T19:54:17;34.20;;;18.70;;
75272;SDS011;63869;52.344;16.928;2024-02-14T19:59:22;30.25;;;16.35;;
75272;SDS011;63869;52.344;16.928;2024-02-14T20:01:54;36.92;;;17.73;;
75272;SDS011;63869;52.344;16.928;2024-02-14T20:04:19;35.97;;;17.92;;
75272;SDS011;63869;52.344;16.928;2024-02-14T20:06:45;42.63;;;19.55;;
75272;SDS011;63869;52.344;16.928;2024-02-14T20:09:15;33.80;;;17.50;;
75272;SDS011;63869;52.344;16.928;2024-02-14T20:11:48;42.03;;;20.23;;
75272;SDS011;63869;52.344;16.928;2024-02-14T20:14:14;50.03;;;21.50;;
75272;SDS011;63869;52.344;16.928;2024-02-14T20:16:39;42.47;;;19.70;;
75272;SDS011;63869;52.344;16.928;2024-02-14T20:19:05;53.05;;;20.40;;
75272;SDS011;63869;52.344;16.928;2024-02-14T20:21:31;43.53;;;20.55;;
75272;SDS011;63869;52.344;16.928;2024-02-14T20:23:57;57.83;;;27.50;;
75272;SDS011;63869;52.344;16.928;2024-02-14T20:26:30;40.50;;;21.00;;
75272;SDS011;63869;52.344;16.928;2024-02-14T20:28:56;39.28;;;18.35;;
75272;SDS011;63869;52.344;16.928;2024-02-14T20:31:22;37.78;;;18.38;;
75272;SDS011;63869;52.344;16.928;2024-02-14T20:33:47;38.72;;;18.95;;
75272;SDS011;63869;52.344;16.928;2024-02-14T20:36:12;34.55;;;17.38;;
75272;SDS011;63869;52.344;16.928;2024-02-14T20:38:38;36.15;;;19.02;;
75272;SDS011;63869;52.344;16.928;2024-02-14T20:41:03;35.05;;;17.13;;
75272;SDS011;63869;52.344;16.928;2024-02-14T20:43:29;31.92;;;16.67;;
75272;SDS011;63869;52.344;16.928;2024-02-14T20:46:02;33.67;;;16.77;;
75272;SDS011;63869;52.344;16.928;2024-02-14T20:48:27;31.55;;;16.85;;
75272;SDS011;63869;52.344;16.928;2024-02-14T20:50:53;33.00;;;18.40;;
75272;SDS011;63869;52.344;16.928;2024-02-14T20:53:19;32.47;;;16.77;;
75272;SDS011;63869;52.344;16.928;2024-02-14T20:55:44;34.67;;;17.52;;
75272;SDS011;63869;52.344;16.928;2024-02-14T20:58:10;39.00;;;18.50;;
75272;SDS011;63869;52.344;16.928;2024-02-14T21:00:35;33.13;;;17.35;;
75272;SDS011;63869;52.344;16.928;2024-02-14T21:03:01;35.03;;;18.50;;
75272;SDS011;63869;52.344;16.928;2024-02-14T21:05:26;34.80;;;18.60;;
75272;SDS011;63869;52.344;16.928;2024-02-14T21:07:51;35.55;;;18.50;;
75272;SDS011;63869;52.344;16.928;2024-02-14T21:10:17;34.78;;;18.73;;
75272;SDS011;63869;52.344;16.928;2024-02-14T21:15:24;37.30;;;17.50;;
75272;SDS011;63869;52.344;16.928;2024-02-14T21:17:56;34.65;;;18.25;;
75272;SDS011;63869;52.344;16.928;2024-02-14T21:20:21;30.13;;;17.42;;
75272;SDS011;63869;52.344;16.928;2024-02-14T21:22:47;29.15;;;16.70;;
75272;SDS011;63869;52.344;16.928;2024-02-14T21:25:14;35.38;;;17.17;;
75272;SDS011;63869;52.344;16.928;2024-02-14T21:27:40;31.27;;;17.70;;
75272;SDS011;63869;52.344;16.928;2024-02-14T21:30:05;36.67;;;18.42;;
75272;SDS011;63869;52.344;16.928;2024-02-14T21:32:31;30.30;;;16.90;;
75272;SDS011;63869;52.344;16.928;2024-02-14T21:34:57;33.20;;;17.55;;
75272;SDS011;63869;52.344;16.928;2024-02-14T21:37:22;35.38;;;18.95;;
75272;SDS011;63869;52.344;16.928;2024-02-14T21:39:47;36.28;;;18.38;;
75272;SDS011;63869;52.344;16.928;2024-02-14T21:42:13;42.83;;;19.95;;
75272;SDS011;63869;52.344;16.928;2024-02-14T21:44:38;36.05;;;18.75;;
75272;SDS011;63869;52.344;16.928;2024-02-14T21:47:03;39.75;;;19.02;;
75272;SDS011;63869;52.344;16.928;2024-02-14T21:49:30;33.72;;;17.80;;
75272;SDS011;63869;52.344;16.928;2024-02-14T21:51:57;33.83;;;18.15;;
75272;SDS011;63869;52.344;16.928;2024-02-14T21:54:29;40.33;;;23.90;;
75272;SDS011;63869;52.344;16.928;2024-02-14T21:56:55;38.35;;;20.52;;
75272;SDS011;63869;52.344;16.928;2024-02-14T21:59:20;37.58;;;19.38;;
75272;SDS011;63869;52.344;16.928;2024-02-14T22:01:46;33.08;;;17.10;;
75272;SDS011;63869;52.344;16.928;2024-02-14T22:04:11;32.95;;;16.60;;
75272;SDS011;63869;52.344;16.928;2024-02-14T22:06:37;38.70;;;19.10;;
75272;SDS011;63869;52.344;16.928;2024-02-14T22:09:02;36.80;;;18.63;;
75272;SDS011;63869;52.344;16.928;2024-02-14T22:11:30;34.28;;;17.48;;
75272;SDS011;63869;52.344;16.928;2024-02-14T22:13:56;33.20;;;17.75;;
75272;SDS011;63869;52.344;16.928;2024-02-14T22:16:21;37.92;;;18.42;;
75272;SDS011;63869;52.344;16.928;2024-02-14T22:18:47;34.90;;;18.77;;
75272;SDS011;63869;52.344;16.928;2024-02-14T22:21:14;42.28;;;21.38;;
75272;SDS011;63869;52.344;16.928;2024-02-14T22:23:39;31.90;;;18.27;;
75272;SDS011;63869;52.344;16.928;2024-02-14T22:26:05;38.13;;;18.98;;
75272;SDS011;63869;52.344;16.928;2024-02-14T22:28:32;33.60;;;18.08;;
75272;SDS011;63869;52.344;16.928;2024-02-14T22:30:59;38.47;;;20.90;;
75272;SDS011;63869;52.344;16.928;2024-02-14T22:33:26;31.75;;;18.67;;
75272;SDS011;63869;52.344;16.928;2024-02-14T22:35:51;36.10;;;20.38;;
75272;SDS011;63869;52.344;16.928;2024-02-14T22:38:17;32.40;;;18.27;;
75272;SDS011;63869;52.344;16.928;2024-02-14T22:40:44;35.90;;;20.02;;
75272;SDS011;63869;52.344;16.928;2024-02-14T22:43:10;33.72;;;17.73;;
75272;SDS011;63869;52.344;16.928;2024-02-14T22:45:36;31.27;;;17.92;;
75272;SDS011;63869;52.344;16.928;2024-02-14T22:48:01;34.00;;;18.08;;
75272;SDS011;63869;52.344;16.928;2024-02-14T22:50:28;32.08;;;18.20;;
75272;SDS011;63869;52.344;16.928;2024-02-14T22:52:53;30.83;;;17.98;;
75272;SDS011;63869;52.344;16.928;2024-02-14T22:55:19;33.92;;;17.75;;
75272;SDS011;63869;52.344;16.928;2024-02-14T22:57:44;27.88;;;16.13;;
75272;SDS011;63869;52.344;16.928;2024-02-14T23:00:10;33.28;;;17.27;;
75272;SDS011;63869;52.344;16.928;2024-02-14T23:02:39;31.67;;;15.98;;
75272;SDS011;63869;52.344;16.928;2024-02-14T23:05:07;33.90;;;16.30;;
75272;SDS011;63869;52.344;16.928;2024-02-14T23:07:33;28.83;;;15.98;;
75272;SDS011;63869;52.344;16.928;2024-02-14T23:10:01;41.15;;;21.02;;
75272;SDS011;63869;52.344;16.928;2024-02-14T23:12:27;36.15;;;17.27;;
75272;SDS011;63869;52.344;16.928;2024-02-14T23:14:54;35.45;;;18.83;;
75272;SDS011;63869;52.344;16.928;2024-02-14T23:17:20;42.75;;;20.25;;
75272;SDS011;63869;52.344;16.928;2024-02-14T23:19:45;37.05;;;18.38;;
75272;SDS011;63869;52.344;16.928;2024-02-14T23:22:10;47.20;;;20.33;;
75272;SDS011;63869;52.344;16.928;2024-02-14T23:24:36;52.70;;;23.75;;
75272;SDS011;63869;52.344;16.928;2024-02-14T23:27:02;34.00;;;16.88;;
75272;SDS011;63869;52.344;16.928;2024-02-14T23:29:27;26.40;;;14.95;;
75272;SDS011;63869;52.344;16.928;2024-02-14T23:31:52;27.33;;;14.65;;
75272;SDS011;63869;52.344;16.928;2024-02-14T23:34:18;33.28;;;17.98;;
75272;SDS011;63869;52.344;16.928;2024-02-14T23:36:43;25.25;;;14.15;;
75272;SDS011;63869;52.344;16.928;2024-02-14T23:39:10;28.20;;;14.93;;
75272;SDS011;63869;52.344;16.928;2024-02-14T23:41:35;27.65;;;14.43;;
75272;SDS011;63869;52.344;16.928;2024-02-14T23:44:00;27.42;;;14.15;;
75272;SDS011;63869;52.344;16.928;2024-02-14T23:46:28;31.98;;;15.30;;
75272;SDS011;63869;52.344;16.928;2024-02-14T23:48:55;33.15;;;16.88;;
75272;SDS011;63869;52.344;16.928;2024-02-14T23:51:21;28.27;;;15.40;;
75272;SDS011;63869;52.344;16.928;2024-02-14T23:53:47;34.10;;;16.27;;
75272;SDS011;63869;52.344;16.928;2024-02-14T23:56:12;27.20;;;15.27;;
75272;SDS011;63869;52.344;16.928;2024-02-14T23:58:38;29.33;;;14.95;;
